createdAt,value
2018-09-15T00:00:28.083Z,14.40
2018-09-15T00:03:26.044Z,14.40
2018-09-15T00:06:24.078Z,14.40
2018-09-15T00:09:22.919Z,14.40
2018-09-15T00:12:20.596Z,14.50
2018-09-15T00:15:18.274Z,14.40
2018-09-15T00:18:17.971Z,14.40
2018-09-15T00:21:15.801Z,14.40
2018-09-15T00:24:13.621Z,14.40
2018-09-15T00:27:11.351Z,14.40
2018-09-15T00:30:09.359Z,14.40
2018-09-15T00:33:07.277Z,14.40
2018-09-15T00:36:05.040Z,14.40
2018-09-15T00:39:02.905Z,14.30
2018-09-15T00:42:00.543Z,14.30
2018-09-15T00:44:58.311Z,14.30
2018-09-15T00:47:56.301Z,14.30
2018-09-15T00:50:54.163Z,14.30
2018-09-15T00:53:51.905Z,14.30
2018-09-15T00:56:49.679Z,14.20
2018-09-15T00:59:47.349Z,14.20
2018-09-15T01:02:44.967Z,14.20
2018-09-15T01:05:42.870Z,14.20
2018-09-15T01:08:40.438Z,14.20
2018-09-15T01:11:38.170Z,14.20
2018-09-15T01:14:35.821Z,14.20
2018-09-15T01:17:33.479Z,14.10
2018-09-15T01:20:31.358Z,14.10
2018-09-15T01:23:29.160Z,14.10
2018-09-15T01:26:26.768Z,14.10
2018-09-15T01:29:24.520Z,14.10
2018-09-15T01:32:22.280Z,14.10
2018-09-15T01:35:20.053Z,14.10
2018-09-15T01:38:17.653Z,14.00
2018-09-15T01:41:15.495Z,14.00
2018-09-15T01:44:13.224Z,14.00
2018-09-15T01:47:11.008Z,14.00
2018-09-15T01:50:08.565Z,14.00
2018-09-15T01:53:06.513Z,14.00
2018-09-15T01:56:04.270Z,14.00
2018-09-15T01:59:01.901Z,14.00
2018-09-15T02:01:59.568Z,14.00
2018-09-15T02:04:57.139Z,14.00
2018-09-15T02:07:54.668Z,14.00
2018-09-15T02:10:52.459Z,14.00
2018-09-15T02:13:50.225Z,14.00
2018-09-15T02:16:47.944Z,14.00
2018-09-15T02:19:45.766Z,14.00
2018-09-15T02:22:43.663Z,14.00
2018-09-15T02:25:41.189Z,14.00
2018-09-15T02:28:38.926Z,14.00
2018-09-15T02:31:36.566Z,14.00
2018-09-15T02:34:34.422Z,14.00
2018-09-15T02:37:33.020Z,14.00
2018-09-15T02:40:31.642Z,14.00
2018-09-15T02:43:29.555Z,13.90
2018-09-15T02:46:27.485Z,13.90
2018-09-15T02:49:25.033Z,13.90
2018-09-15T02:52:23.086Z,13.90
2018-09-15T02:55:20.873Z,13.90
2018-09-15T02:58:18.692Z,13.90
2018-09-15T03:01:16.535Z,13.90
2018-09-15T03:04:14.532Z,13.90
2018-09-15T03:07:12.344Z,13.90
2018-09-15T03:10:10.171Z,13.90
2018-09-15T03:13:08.060Z,13.80
2018-09-15T03:16:05.910Z,13.90
2018-09-15T03:19:03.817Z,13.90
2018-09-15T03:22:01.738Z,13.90
2018-09-15T03:24:59.614Z,13.80
2018-09-15T03:27:57.327Z,13.80
2018-09-15T03:30:54.823Z,13.80
2018-09-15T03:33:53.650Z,13.80
2018-09-15T03:36:51.069Z,13.90
2018-09-15T03:39:48.764Z,13.90
2018-09-15T03:42:46.404Z,13.80
2018-09-15T03:45:43.975Z,13.80
2018-09-15T03:48:41.582Z,13.90
2018-09-15T03:51:39.185Z,13.90
2018-09-15T03:54:39.798Z,13.90
2018-09-15T03:57:37.468Z,13.90
2018-09-15T04:00:35.165Z,13.90
2018-09-15T04:03:32.897Z,13.90
2018-09-15T04:06:30.504Z,14.00
2018-09-15T04:09:29.337Z,14.00
2018-09-15T04:12:27.042Z,13.90
2018-09-15T04:15:25.185Z,13.90
2018-09-15T04:18:23.992Z,13.90
2018-09-15T04:21:21.984Z,13.90
2018-09-15T04:24:19.621Z,13.80
2018-09-15T04:27:17.203Z,13.80
2018-09-15T04:30:15.077Z,13.80
2018-09-15T04:33:18.772Z,13.80
2018-09-15T04:36:17.394Z,13.80
2018-09-15T04:39:15.358Z,13.80
2018-09-15T04:42:13.372Z,13.80
2018-09-15T04:45:11.080Z,13.80
2018-09-15T04:48:09.010Z,13.70
2018-09-15T04:51:06.908Z,13.70
2018-09-15T04:54:04.584Z,13.70
2018-09-15T04:57:02.513Z,13.60
2018-09-15T05:00:00.209Z,13.60
2018-09-15T05:02:57.839Z,13.60
2018-09-15T05:05:55.776Z,13.50
2018-09-15T05:08:53.540Z,13.50
2018-09-15T05:11:51.306Z,13.50
2018-09-15T05:14:48.981Z,13.40
2018-09-15T05:17:47.038Z,13.40
2018-09-15T05:20:44.878Z,13.40
2018-09-15T05:23:43.673Z,13.30
2018-09-15T05:26:41.305Z,13.30
2018-09-15T05:29:38.867Z,13.20
2018-09-15T05:32:36.665Z,13.20
2018-09-15T05:35:34.591Z,13.20
2018-09-15T05:38:32.350Z,13.20
2018-09-15T05:41:29.901Z,13.20
2018-09-15T05:44:27.645Z,13.20
2018-09-15T05:47:25.367Z,13.20
2018-09-15T05:50:22.964Z,13.20
2018-09-15T05:53:20.541Z,13.30
2018-09-15T05:56:18.277Z,13.30
2018-09-15T05:59:16.219Z,13.30
2018-09-15T06:02:13.931Z,13.30
2018-09-15T06:05:11.683Z,13.30
2018-09-15T06:08:09.302Z,13.30
2018-09-15T06:11:07.051Z,13.30
2018-09-15T06:14:04.724Z,13.30
2018-09-15T06:17:02.639Z,13.30
2018-09-15T06:20:00.376Z,13.30
2018-09-15T06:22:58.205Z,13.20
2018-09-15T06:25:56.043Z,13.20
2018-09-15T06:28:54.070Z,13.30
2018-09-15T06:31:51.629Z,13.30
2018-09-15T06:34:49.555Z,13.30
2018-09-15T06:37:47.496Z,13.40
2018-09-15T06:40:45.371Z,13.40
2018-09-15T06:43:42.938Z,13.40
2018-09-15T06:46:40.645Z,13.50
2018-09-15T06:49:41.407Z,13.40
2018-09-15T06:52:39.103Z,13.50
2018-09-15T06:55:37.025Z,13.50
2018-09-15T06:58:34.566Z,13.60
2018-09-15T07:01:32.195Z,13.60
2018-09-15T07:04:30.723Z,13.70
2018-09-15T07:07:28.313Z,13.70
2018-09-15T07:10:26.171Z,13.80
2018-09-15T07:13:23.932Z,13.80
2018-09-15T07:16:21.698Z,14.00
2018-09-15T07:19:19.368Z,14.50
2018-09-15T07:22:16.996Z,14.60
2018-09-15T07:25:14.740Z,14.70
2018-09-15T07:28:12.886Z,14.60
2018-09-15T07:31:10.404Z,14.50
2018-09-15T07:34:07.902Z,14.50
2018-09-15T07:37:05.617Z,14.40
2018-09-15T07:40:03.453Z,14.40
2018-09-15T07:43:01.154Z,14.30
2018-09-15T07:45:59.067Z,14.30
2018-09-15T07:48:56.567Z,14.30
2018-09-15T07:51:54.944Z,14.40
2018-09-15T07:54:53.063Z,14.40
2018-09-15T07:57:50.910Z,14.60
2018-09-15T08:00:48.463Z,14.70
2018-09-15T08:03:46.302Z,14.70
2018-09-15T08:06:44.230Z,14.60
2018-09-15T08:09:41.729Z,14.80
2018-09-15T08:12:39.587Z,15.30
2018-09-15T08:15:37.155Z,15.90
2018-09-15T08:18:34.889Z,15.90
2018-09-15T08:21:33.453Z,16.00
2018-09-15T08:24:31.950Z,16.20
2018-09-15T08:27:29.764Z,16.50
2018-09-15T08:30:27.329Z,16.80
2018-09-15T08:33:25.182Z,16.80
2018-09-15T08:36:22.820Z,16.40
2018-09-15T08:39:21.622Z,16.10
2018-09-15T08:42:19.293Z,16.20
2018-09-15T08:45:17.156Z,16.40
2018-09-15T08:48:14.785Z,16.50
2018-09-15T08:51:12.423Z,16.70
2018-09-15T08:54:10.286Z,16.70
2018-09-15T08:57:09.093Z,17.10
2018-09-15T09:00:06.641Z,16.90
2018-09-15T09:03:04.282Z,17.00
2018-09-15T09:06:02.080Z,17.30
2018-09-15T09:09:00.879Z,17.60
2018-09-15T09:11:58.751Z,17.20
2018-09-15T09:14:57.325Z,16.90
2018-09-15T09:17:58.938Z,17.00
2018-09-15T09:20:56.639Z,17.20
2018-09-15T09:23:55.415Z,17.60
2018-09-15T09:26:53.212Z,17.60
2018-09-15T09:29:51.007Z,17.70
2018-09-15T09:32:48.787Z,17.80
2018-09-15T09:35:46.422Z,17.70
2018-09-15T09:38:45.264Z,17.40
2018-09-15T09:41:42.845Z,17.10
2018-09-15T09:44:40.555Z,17.20
2018-09-15T09:47:39.175Z,17.50
2018-09-15T09:50:37.045Z,17.50
2018-09-15T09:53:35.852Z,17.70
2018-09-15T09:56:33.258Z,18.00
2018-09-15T09:59:39.722Z,17.60
2018-09-15T10:02:37.497Z,17.30
2018-09-15T10:05:35.038Z,17.20
2018-09-15T10:08:32.738Z,17.20
2018-09-15T10:11:30.473Z,17.10
2018-09-15T10:14:28.001Z,17.20
2018-09-15T10:17:25.672Z,17.20
2018-09-15T10:20:23.362Z,17.30
2018-09-15T10:23:21.243Z,17.40
2018-09-15T10:26:18.938Z,17.20
2018-09-15T10:29:17.523Z,16.90
2018-09-15T10:32:16.184Z,16.70
2018-09-15T10:35:13.715Z,16.60
2018-09-15T10:38:11.455Z,16.60
2018-09-15T10:41:09.274Z,16.50
2018-09-15T10:44:08.550Z,16.60
2018-09-15T10:47:08.085Z,16.70
2018-09-15T10:50:06.618Z,16.80
2018-09-15T10:53:05.359Z,17.10
2018-09-15T10:56:06.921Z,17.10
2018-09-15T10:59:05.586Z,17.00
2018-09-15T11:02:03.403Z,17.10
2018-09-15T11:05:01.296Z,17.10
2018-09-15T11:07:59.010Z,17.20
2018-09-15T11:10:56.639Z,17.20
2018-09-15T11:13:54.241Z,17.30
2018-09-15T11:16:53.051Z,17.40
2018-09-15T11:19:50.679Z,17.30
2018-09-15T11:22:48.579Z,17.20
2018-09-15T11:25:46.283Z,17.20
2018-09-15T11:29:15.182Z,17.10
2018-09-15T11:32:12.980Z,17.10
2018-09-15T11:35:10.930Z,17.10
2018-09-15T11:38:08.650Z,16.90
2018-09-15T11:41:06.413Z,16.80
2018-09-15T11:44:04.067Z,16.80
2018-09-15T11:47:01.721Z,17.00
2018-09-15T11:50:00.598Z,17.00
2018-09-15T11:52:58.298Z,16.90
2018-09-15T11:55:56.273Z,17.00
2018-09-15T11:58:53.565Z,17.00
2018-09-15T12:01:51.071Z,17.00
2018-09-15T12:04:48.597Z,17.00
2018-09-15T12:07:46.181Z,17.00
2018-09-15T12:10:43.596Z,17.20
2018-09-15T12:13:41.293Z,17.30
2018-09-15T12:16:38.933Z,17.30
2018-09-15T12:19:36.820Z,17.20
2018-09-15T12:22:34.467Z,17.10
2018-09-15T12:25:32.312Z,17.10
2018-09-15T12:28:30.109Z,17.20
2018-09-15T12:31:28.076Z,17.10
2018-09-15T12:34:25.695Z,17.20
2018-09-15T12:37:23.390Z,17.80
2018-09-15T12:40:22.938Z,18.00
2018-09-15T12:43:20.920Z,18.60
2018-09-15T12:46:18.799Z,19.40
2018-09-15T12:49:16.235Z,20.20
2018-09-15T12:52:14.035Z,20.80
2018-09-15T12:55:11.922Z,20.70
2018-09-15T12:58:09.561Z,20.70
2018-09-15T13:01:08.330Z,21.00
2018-09-15T13:04:06.019Z,21.40
2018-09-15T13:07:03.804Z,21.70
2018-09-15T13:10:01.660Z,22.10
2018-09-15T13:12:59.309Z,22.30
2018-09-15T13:15:57.057Z,22.50
2018-09-15T13:18:54.742Z,22.70
2018-09-15T13:21:53.530Z,22.00
2018-09-15T13:24:51.225Z,21.20
2018-09-15T13:27:48.836Z,21.60
2018-09-15T13:30:46.691Z,21.70
2018-09-15T13:33:44.186Z,21.40
2018-09-15T13:36:42.705Z,20.70
2018-09-15T13:39:40.333Z,20.20
2018-09-15T13:42:38.094Z,19.70
2018-09-15T13:45:35.771Z,19.40
2018-09-15T13:48:33.528Z,19.20
2018-09-15T13:51:31.293Z,18.90
2018-09-15T13:54:29.852Z,18.60
2018-09-15T13:57:27.606Z,18.40
2018-09-15T14:00:26.459Z,18.40
2018-09-15T14:03:24.289Z,18.30
2018-09-15T14:06:22.120Z,18.20
2018-09-15T14:09:21.777Z,18.10
2018-09-15T14:12:19.519Z,17.90
2018-09-15T14:15:17.200Z,17.90
2018-09-15T14:18:14.795Z,17.90
2018-09-15T14:21:12.590Z,17.90
2018-09-15T14:24:11.379Z,17.90
2018-09-15T14:27:09.160Z,17.90
2018-09-15T14:30:08.801Z,18.00
2018-09-15T14:33:06.661Z,17.90
2018-09-15T14:36:04.359Z,17.60
2018-09-15T14:39:02.211Z,17.60
2018-09-15T14:41:59.756Z,17.60
2018-09-15T14:44:57.615Z,17.60
2018-09-15T14:47:55.073Z,17.60
2018-09-15T14:50:52.666Z,17.80
2018-09-15T14:53:50.386Z,17.80
2018-09-15T14:56:48.271Z,17.70
2018-09-15T14:59:45.779Z,17.50
2018-09-15T15:02:43.654Z,17.30
2018-09-15T15:05:41.343Z,17.20
2018-09-15T15:08:39.254Z,17.10
2018-09-15T15:11:37.906Z,17.10
2018-09-15T15:14:35.678Z,17.00
2018-09-15T15:17:34.255Z,17.10
2018-09-15T15:20:31.866Z,17.20
2018-09-15T15:23:29.797Z,17.20
2018-09-15T15:26:28.961Z,17.10
2018-09-15T15:29:28.515Z,17.00
2018-09-15T15:32:27.723Z,17.00
2018-09-15T15:35:27.285Z,16.90
2018-09-15T15:38:26.093Z,16.90
2018-09-15T15:41:27.884Z,16.90
2018-09-15T15:44:26.424Z,16.90
2018-09-15T15:47:24.223Z,16.90
2018-09-15T15:50:24.487Z,16.80
2018-09-15T15:53:23.893Z,16.80
2018-09-15T15:56:21.200Z,16.70
2018-09-15T15:59:18.938Z,16.70
2018-09-15T16:02:16.599Z,16.60
2018-09-15T16:05:14.412Z,16.50
2018-09-15T16:08:12.068Z,16.40
2018-09-15T16:11:09.869Z,16.40
2018-09-15T16:14:07.774Z,16.30
2018-09-15T16:17:05.372Z,16.30
2018-09-15T16:20:03.186Z,16.20
2018-09-15T16:23:01.883Z,16.20
2018-09-15T16:25:59.534Z,16.20
2018-09-15T16:28:57.446Z,16.20
2018-09-15T16:31:55.069Z,16.10
2018-09-15T16:34:52.617Z,16.00
2018-09-15T16:37:50.508Z,16.00
2018-09-15T16:40:47.990Z,15.90
2018-09-15T16:43:45.781Z,15.90
2018-09-15T16:46:43.440Z,15.80
2018-09-15T16:49:42.176Z,15.70
2018-09-15T16:52:40.046Z,15.60
2018-09-15T16:55:37.883Z,15.60
2018-09-15T16:58:35.555Z,15.60
2018-09-15T17:01:33.342Z,15.50
2018-09-15T17:04:30.873Z,15.50
2018-09-15T17:07:28.654Z,15.50
2018-09-15T17:10:26.210Z,15.40
2018-09-15T17:13:23.984Z,15.30
2018-09-15T17:16:21.566Z,15.30
2018-09-15T17:19:19.094Z,15.20
2018-09-15T17:22:16.784Z,15.10
2018-09-15T17:25:14.566Z,15.20
2018-09-15T17:28:13.258Z,15.10
2018-09-15T17:31:11.889Z,15.00
2018-09-15T17:34:09.582Z,14.90
2018-09-15T17:37:07.352Z,14.90
2018-09-15T17:40:04.972Z,14.80
2018-09-15T17:43:02.605Z,14.80
2018-09-15T17:46:00.173Z,14.70
2018-09-15T17:48:58.839Z,14.70
2018-09-15T17:51:56.644Z,14.60
2018-09-15T17:54:54.464Z,14.60
2018-09-15T17:57:53.031Z,14.60
2018-09-15T18:00:50.569Z,14.50
2018-09-15T18:03:48.485Z,14.50
2018-09-15T18:06:46.080Z,14.50
2018-09-15T18:09:44.031Z,14.40
2018-09-15T18:12:41.706Z,14.40
2018-09-15T18:15:39.403Z,14.40
2018-09-15T18:18:37.042Z,14.30
2018-09-15T18:21:35.014Z,14.30
2018-09-15T18:24:32.808Z,14.30
2018-09-15T18:27:32.499Z,14.30
2018-09-15T18:30:30.300Z,14.20
2018-09-15T18:33:30.862Z,14.20
2018-09-15T18:36:28.898Z,14.20
2018-09-15T18:39:29.510Z,14.10
2018-09-15T18:42:26.999Z,14.10
2018-09-15T18:45:25.059Z,14.10
2018-09-15T18:48:22.900Z,14.00
2018-09-15T18:51:20.311Z,14.00
2018-09-15T18:54:17.903Z,14.00
2018-09-15T18:57:15.532Z,13.90
2018-09-15T19:00:14.317Z,13.90
2018-09-15T19:03:12.034Z,13.90
2018-09-15T19:06:10.763Z,14.00
2018-09-15T19:09:09.369Z,13.90
2018-09-15T19:12:07.453Z,13.90
2018-09-15T19:15:05.138Z,13.90
2018-09-15T19:18:02.899Z,13.90
2018-09-15T19:21:00.784Z,13.80
2018-09-15T19:23:59.535Z,13.80
2018-09-15T19:26:57.276Z,13.70
2018-09-15T19:29:55.170Z,13.70
2018-09-15T19:32:52.737Z,13.70
2018-09-15T19:35:50.305Z,13.60
2018-09-15T19:38:48.815Z,13.60
2018-09-15T19:41:46.971Z,13.60
2018-09-15T19:44:44.584Z,13.50
2018-09-15T19:47:42.090Z,13.50
2018-09-15T19:50:39.908Z,13.40
2018-09-15T19:53:37.783Z,13.40
2018-09-15T19:56:36.272Z,13.40
2018-09-15T19:59:35.103Z,13.30
2018-09-15T20:02:33.036Z,13.30
2018-09-15T20:05:30.742Z,13.20
2018-09-15T20:08:29.458Z,13.20
2018-09-15T20:11:28.173Z,13.10
2018-09-15T20:14:26.051Z,13.10
2018-09-15T20:17:24.649Z,13.00
2018-09-15T20:20:22.405Z,13.10
2018-09-15T20:23:20.327Z,13.00
2018-09-15T20:26:18.156Z,13.00
2018-09-15T20:29:15.742Z,13.00
2018-09-15T20:32:13.607Z,13.00
2018-09-15T20:35:11.490Z,12.90
2018-09-15T20:38:09.167Z,12.90
2018-09-15T20:41:06.917Z,12.90
2018-09-15T20:44:04.495Z,12.80
2018-09-15T20:47:02.347Z,12.80
2018-09-15T20:50:01.158Z,12.80
2018-09-15T20:52:58.916Z,12.70
2018-09-15T20:55:56.635Z,12.70
2018-09-15T20:58:54.334Z,12.70
2018-09-15T21:01:52.019Z,12.70
2018-09-15T21:04:50.496Z,12.70
2018-09-15T21:07:48.063Z,12.60
2018-09-15T21:10:46.704Z,12.60
2018-09-15T21:13:44.241Z,12.60
2018-09-15T21:16:41.775Z,12.60
2018-09-15T21:19:39.307Z,12.60
2018-09-15T21:22:36.900Z,12.50
2018-09-15T21:25:34.558Z,12.50
2018-09-15T21:28:32.376Z,12.50
2018-09-15T21:31:30.355Z,12.50
2018-09-15T21:34:27.942Z,12.40
2018-09-15T21:37:25.919Z,12.40
2018-09-15T21:40:23.685Z,12.40
2018-09-15T21:43:21.473Z,12.40
2018-09-15T21:46:19.212Z,12.40
2018-09-15T21:49:16.495Z,12.40
2018-09-15T21:52:14.068Z,12.30
2018-09-15T21:55:11.618Z,12.30
2018-09-15T21:58:10.190Z,12.30
2018-09-15T22:01:10.760Z,12.30
2018-09-15T22:04:15.167Z,12.30
2018-09-15T22:07:13.178Z,12.20
2018-09-15T22:10:14.154Z,12.20
2018-09-15T22:13:11.956Z,12.20
2018-09-15T22:16:09.478Z,12.10
2018-09-15T22:19:07.271Z,12.10
2018-09-15T22:22:05.011Z,12.10
2018-09-15T22:25:02.545Z,12.10
2018-09-15T22:28:00.170Z,12.10
2018-09-15T22:30:57.849Z,12.00
2018-09-15T22:33:55.623Z,12.00
2018-09-15T22:36:53.260Z,12.00
2018-09-15T22:39:51.046Z,12.00
2018-09-15T22:42:48.698Z,11.90
2018-09-15T22:45:46.319Z,11.90
2018-09-15T22:48:43.895Z,11.90
2018-09-15T22:51:41.634Z,11.90
2018-09-15T22:54:39.398Z,11.90
2018-09-15T22:57:37.316Z,11.90
2018-09-15T23:00:35.040Z,11.90
2018-09-15T23:03:32.806Z,11.80
2018-09-15T23:06:30.703Z,11.80
2018-09-15T23:09:29.535Z,11.80
2018-09-15T23:12:27.297Z,11.80
2018-09-15T23:15:24.968Z,11.70
2018-09-15T23:18:22.662Z,11.70
2018-09-15T23:21:21.155Z,11.70
2018-09-15T23:24:19.094Z,11.70
2018-09-15T23:27:16.591Z,11.70
2018-09-15T23:30:14.275Z,11.70
2018-09-15T23:33:13.071Z,11.70
2018-09-15T23:36:10.820Z,11.60
2018-09-15T23:39:08.690Z,11.60
2018-09-15T23:42:06.401Z,11.60
2018-09-15T23:45:04.143Z,11.60
2018-09-15T23:48:02.005Z,11.60
2018-09-15T23:50:59.796Z,11.60
2018-09-15T23:53:57.353Z,11.60
2018-09-15T23:56:55.111Z,11.60
2018-09-15T23:59:52.675Z,11.50
